sensor_id;sensor_type;location;lat;lon;timestamp;pressure;altitude;pressure_sealevel;temperature;humidity
75938;BME280;64615;32.062;34.834;2023-04-25T00:02:10;100880.34;;;23.56;52.63
75938;BME280;64615;32.062;34.834;2023-04-25T00:04:36;100881.44;;;23.55;52.56
75938;BME280;64615;32.062;34.834;2023-04-25T00:07:03;100881.72;;;23.54;52.66
75938;BME280;64615;32.062;34.834;2023-04-25T00:09:30;100874.63;;;23.53;52.49
75938;BME280;64615;32.062;34.834;2023-04-25T00:11:55;100879.50;;;23.51;52.73
75938;BME280;64615;32.062;34.834;2023-04-25T00:14:21;100874.88;;;23.51;52.78
75938;BME280;64615;32.062;34.834;2023-04-25T00:16:48;100869.44;;;23.51;52.69
75938;BME280;64615;32.062;34.834;2023-04-25T00:19:13;100868.63;;;23.51;52.73
75938;BME280;64615;32.062;34.834;2023-04-25T00:21:39;100878.69;;;23.50;52.51
75938;BME280;64615;32.062;34.834;2023-04-25T00:24:08;100880.59;;;23.50;52.67
75938;BME280;64615;32.062;34.834;2023-04-25T00:26:34;100876.78;;;23.51;52.73
75938;BME280;64615;32.062;34.834;2023-04-25T00:29:01;100878.44;;;23.52;52.66
75938;BME280;64615;32.062;34.834;2023-04-25T00:31:26;100881.72;;;23.54;52.54
75938;BME280;64615;32.062;34.834;2023-04-25T00:33:52;100880.88;;;23.53;52.41
75938;BME280;64615;32.062;34.834;2023-04-25T00:36:18;100876.78;;;23.51;52.58
75938;BME280;64615;32.062;34.834;2023-04-25T00:38:44;100878.97;;;23.49;52.45
75938;BME280;64615;32.062;34.834;2023-04-25T00:41:10;100878.97;;;23.49;52.62
75938;BME280;64615;32.062;34.834;2023-04-25T00:43:36;100885.47;;;23.48;52.67
75938;BME280;64615;32.062;34.834;2023-04-25T00:46:03;100888.44;;;23.46;52.69
75938;BME280;64615;32.062;34.834;2023-04-25T00:48:29;100880.03;;;23.48;52.61
75938;BME280;64615;32.062;34.834;2023-04-25T00:50:57;100880.03;;;23.48;52.51
75938;BME280;64615;32.062;34.834;2023-04-25T00:53:24;100877.06;;;23.49;52.53
75938;BME280;64615;32.062;34.834;2023-04-25T00:55:51;100884.13;;;23.50;52.72
75938;BME280;64615;32.062;34.834;2023-04-25T00:58:18;100889.53;;;23.50;52.59
75938;BME280;64615;32.062;34.834;2023-04-25T01:00:45;100888.22;;;23.53;52.23
75938;BME280;64615;32.062;34.834;2023-04-25T01:03:15;100889.88;;;23.54;52.36
75938;BME280;64615;32.062;34.834;2023-04-25T01:05:47;100887.16;;;23.54;51.97
75938;BME280;64615;32.062;34.834;2023-04-25T01:08:13;100885.78;;;23.56;52.26
75938;BME280;64615;32.062;34.834;2023-04-25T01:10:39;100892.06;;;23.57;52.36
75938;BME280;64615;32.062;34.834;2023-04-25T01:13:05;100893.69;;;23.58;52.52
75938;BME280;64615;32.062;34.834;2023-04-25T01:15:31;100890.16;;;23.57;52.44
75938;BME280;64615;32.062;34.834;2023-04-25T01:17:57;100892.06;;;23.57;52.32
75938;BME280;64615;32.062;34.834;2023-04-25T01:20:24;100890.97;;;23.58;52.50
75938;BME280;64615;32.062;34.834;2023-04-25T01:22:51;100892.63;;;23.59;52.36
75938;BME280;64615;32.062;34.834;2023-04-25T01:25:18;100893.44;;;23.59;52.25
75938;BME280;64615;32.062;34.834;2023-04-25T01:27:44;100896.16;;;23.59;52.03
75938;BME280;64615;32.062;34.834;2023-04-25T01:30:10;100892.63;;;23.59;52.14
75938;BME280;64615;32.062;34.834;2023-04-25T01:32:36;100895.34;;;23.59;52.10
75938;BME280;64615;32.062;34.834;2023-04-25T01:35:06;100892.63;;;23.59;52.26
75938;BME280;64615;32.062;34.834;2023-04-25T01:40:04;100898.91;;;23.64;51.89
75938;BME280;64615;32.062;34.834;2023-04-25T01:42:34;100901.34;;;23.66;51.73
75938;BME280;64615;32.062;34.834;2023-04-25T01:45:00;100894.31;;;23.65;51.93
75938;BME280;64615;32.062;34.834;2023-04-25T01:47:25;100899.72;;;23.65;51.74
75938;BME280;64615;32.062;34.834;2023-04-25T01:49:51;100910.84;;;23.63;51.77
75938;BME280;64615;32.062;34.834;2023-04-25T01:52:17;100904.59;;;23.63;51.67
75938;BME280;64615;32.062;34.834;2023-04-25T01:54:43;100905.66;;;23.62;51.72
75938;BME280;64615;32.062;34.834;2023-04-25T01:57:13;100911.09;;;23.62;52.18
75938;BME280;64615;32.062;34.834;2023-04-25T01:59:39;100914.91;;;23.61;51.75
75938;BME280;64615;32.062;34.834;2023-04-25T02:02:05;100916.53;;;23.62;51.69
75938;BME280;64615;32.062;34.834;2023-04-25T02:04:31;100904.84;;;23.61;51.67
75938;BME280;64615;32.062;34.834;2023-04-25T02:06:56;100917.63;;;23.61;51.78
75938;BME280;64615;32.062;34.834;2023-04-25T02:09:22;100916.78;;;23.60;51.60
75938;BME280;64615;32.062;34.834;2023-04-25T02:11:48;100917.06;;;23.59;51.61
75938;BME280;64615;32.062;34.834;2023-04-25T02:14:14;100919.78;;;23.59;51.43
75938;BME280;64615;32.062;34.834;2023-04-25T02:16:39;100926.88;;;23.60;51.24
75938;BME280;64615;32.062;34.834;2023-04-25T02:19:05;100917.06;;;23.59;51.42
75938;BME280;64615;32.062;34.834;2023-04-25T02:21:32;100919.50;;;23.60;51.38
75938;BME280;64615;32.062;34.834;2023-04-25T02:23:58;100918.72;;;23.60;51.28
75938;BME280;64615;32.062;34.834;2023-04-25T02:26:23;100918.16;;;23.58;51.39
75938;BME280;64615;32.062;34.834;2023-04-25T02:28:50;100918.16;;;23.58;51.29
75938;BME280;64615;32.062;34.834;2023-04-25T02:31:16;100920.88;;;23.58;51.24
75938;BME280;64615;32.062;34.834;2023-04-25T02:33:42;100916.75;;;23.55;51.35
75938;BME280;64615;32.062;34.834;2023-04-25T02:36:08;100920.84;;;23.53;51.25
75938;BME280;64615;32.062;34.834;2023-04-25T02:38:34;100920.00;;;23.52;51.40
75938;BME280;64615;32.062;34.834;2023-04-25T02:41:00;100922.16;;;23.50;51.31
75938;BME280;64615;32.062;34.834;2023-04-25T02:43:25;100922.97;;;23.51;51.52
75938;BME280;64615;32.062;34.834;2023-04-25T02:45:51;100931.41;;;23.49;51.50
75938;BME280;64615;32.062;34.834;2023-04-25T02:48:17;100922.69;;;23.47;51.49
75938;BME280;64615;32.062;34.834;2023-04-25T02:50:42;100931.09;;;23.46;51.52
75938;BME280;64615;32.062;34.834;2023-04-25T02:53:08;100931.91;;;23.46;51.50
75938;BME280;64615;32.062;34.834;2023-04-25T02:55:34;100934.38;;;23.48;51.34
75938;BME280;64615;32.062;34.834;2023-04-25T02:58:00;100935.19;;;23.48;51.40
75938;BME280;64615;32.062;34.834;2023-04-25T03:00:25;100930.84;;;23.47;51.31
75938;BME280;64615;32.062;34.834;2023-04-25T03:02:51;100938.16;;;23.47;51.68
75938;BME280;64615;32.062;34.834;2023-04-25T03:05:17;100940.28;;;23.45;51.74
75938;BME280;64615;32.062;34.834;2023-04-25T03:07:43;100938.41;;;23.45;51.82
75938;BME280;64615;32.062;34.834;2023-04-25T03:10:10;100931.59;;;23.43;51.80
75938;BME280;64615;32.062;34.834;2023-04-25T03:12:36;100938.16;;;23.47;53.04
75938;BME280;64615;32.062;34.834;2023-04-25T03:15:02;100941.19;;;23.50;53.05
75938;BME280;64615;32.062;34.834;2023-04-25T03:17:28;100940.38;;;23.50;52.99
75938;BME280;64615;32.062;34.834;2023-04-25T03:19:53;100930.06;;;23.52;52.25
75938;BME280;64615;32.062;34.834;2023-04-25T03:22:19;100934.94;;;23.50;52.60
75938;BME280;64615;32.062;34.834;2023-04-25T03:24:45;100933.59;;;23.52;52.94
75938;BME280;64615;32.062;34.834;2023-04-25T03:27:10;100936.88;;;23.54;52.86
75938;BME280;64615;32.062;34.834;2023-04-25T03:29:36;100940.69;;;23.53;52.91
75938;BME280;64615;32.062;34.834;2023-04-25T03:32:02;100941.50;;;23.54;53.02
75938;BME280;64615;32.062;34.834;2023-04-25T03:34:27;100936.59;;;23.56;52.75
75938;BME280;64615;32.062;34.834;2023-04-25T03:36:53;100939.06;;;23.57;52.41
75938;BME280;64615;32.062;34.834;2023-04-25T03:39:19;100934.53;;;23.68;52.06
75938;BME280;64615;32.062;34.834;2023-04-25T03:41:44;100926.56;;;23.93;50.96
75938;BME280;64615;32.062;34.834;2023-04-25T03:44:10;100933.69;;;24.04;50.31
75938;BME280;64615;32.062;34.834;2023-04-25T03:46:36;100926.66;;;24.08;50.39
75938;BME280;64615;32.062;34.834;2023-04-25T03:49:01;100932.13;;;24.14;49.94
75938;BME280;64615;32.062;34.834;2023-04-25T03:51:27;100928.63;;;24.18;49.66
75938;BME280;64615;32.062;34.834;2023-04-25T03:53:53;100934.44;;;24.32;49.28
75938;BME280;64615;32.062;34.834;2023-04-25T03:56:18;100934.47;;;24.42;48.69
75938;BME280;64615;32.062;34.834;2023-04-25T03:58:44;100935.59;;;24.46;48.18
75938;BME280;64615;32.062;34.834;2023-04-25T04:01:10;100942.97;;;24.56;48.16
75938;BME280;64615;32.062;34.834;2023-04-25T04:03:36;100940.56;;;24.64;47.81
75938;BME280;64615;32.062;34.834;2023-04-25T04:06:04;100936.78;;;24.70;47.75
75938;BME280;64615;32.062;34.834;2023-04-25T04:08:31;100932.16;;;24.76;47.33
75938;BME280;64615;32.062;34.834;2023-04-25T04:10:58;100944.69;;;24.82;46.60
75938;BME280;64615;32.062;34.834;2023-04-25T04:13:26;100946.06;;;24.79;46.83
75938;BME280;64615;32.062;34.834;2023-04-25T04:15:51;100946.59;;;24.76;47.09
75938;BME280;64615;32.062;34.834;2023-04-25T04:18:17;100945.44;;;24.10;43.19
75938;BME280;64615;32.062;34.834;2023-04-25T04:20:43;100946.88;;;23.81;43.57
75938;BME280;64615;32.062;34.834;2023-04-25T04:23:08;100955.16;;;23.64;44.73
75938;BME280;64615;32.062;34.834;2023-04-25T04:25:34;100946.53;;;23.72;43.82
75938;BME280;64615;32.062;34.834;2023-04-25T04:28:00;100951.97;;;24.14;43.24
75938;BME280;64615;32.062;34.834;2023-04-25T04:30:26;100954.13;;;24.54;42.58
75938;BME280;64615;32.062;34.834;2023-04-25T04:32:56;100945.50;;;24.82;42.30
75938;BME280;64615;32.062;34.834;2023-04-25T04:35:22;100951.59;;;25.00;41.55
75938;BME280;64615;32.062;34.834;2023-04-25T04:37:49;100945.06;;;24.96;41.70
75938;BME280;64615;32.062;34.834;2023-04-25T04:40:15;100951.59;;;25.05;41.43
75938;BME280;64615;32.062;34.834;2023-04-25T04:42:42;100954.06;;;25.01;41.35
75938;BME280;64615;32.062;34.834;2023-04-25T04:45:09;100955.44;;;25.19;40.86
75938;BME280;64615;32.062;34.834;2023-04-25T04:47:35;100962.53;;;25.25;41.13
75938;BME280;64615;32.062;34.834;2023-04-25T04:50:03;100957.38;;;25.33;41.12
75938;BME280;64615;32.062;34.834;2023-04-25T04:52:29;100952.22;;;25.42;40.74
75938;BME280;64615;32.062;34.834;2023-04-25T04:54:55;100959.00;;;25.40;40.58
75938;BME280;64615;32.062;34.834;2023-04-25T04:57:21;100959.56;;;25.42;41.00
75938;BME280;64615;32.062;34.834;2023-04-25T04:59:46;100959.56;;;25.52;40.94
75938;BME280;64615;32.062;34.834;2023-04-25T05:02:12;100951.16;;;25.58;40.97
75938;BME280;64615;32.062;34.834;2023-04-25T05:04:38;100958.53;;;25.63;41.43
75938;BME280;64615;32.062;34.834;2023-04-25T05:07:03;100959.88;;;25.70;41.84
75938;BME280;64615;32.062;34.834;2023-04-25T05:09:29;100963.41;;;25.86;40.80
75938;BME280;64615;32.062;34.834;2023-04-25T05:11:55;100961.78;;;25.80;42.01
75938;BME280;64615;32.062;34.834;2023-04-25T05:14:20;100963.97;;;25.78;41.83
75938;BME280;64615;32.062;34.834;2023-04-25T05:16:48;100962.59;;;25.81;42.00
75938;BME280;64615;32.062;34.834;2023-04-25T05:19:14;100966.94;;;25.87;42.31
75938;BME280;64615;32.062;34.834;2023-04-25T05:21:39;100966.69;;;25.88;42.30
75938;BME280;64615;32.062;34.834;2023-04-25T05:24:05;100967.78;;;25.87;42.22
75938;BME280;64615;32.062;34.834;2023-04-25T05:26:31;100970.75;;;25.86;41.94
75938;BME280;64615;32.062;34.834;2023-04-25T05:28:57;100965.34;;;25.91;41.86
75938;BME280;64615;32.062;34.834;2023-04-25T05:31:23;100960.38;;;26.03;41.13
75938;BME280;64615;32.062;34.834;2023-04-25T05:33:49;100961.47;;;26.07;41.02
75938;BME280;64615;32.062;34.834;2023-04-25T05:36:14;100961.19;;;26.08;41.02
75938;BME280;64615;32.062;34.834;2023-04-25T05:38:40;100953.53;;;26.21;40.85
75938;BME280;64615;32.062;34.834;2023-04-25T05:41:05;100953.81;;;26.19;41.38
75938;BME280;64615;32.062;34.834;2023-04-25T05:43:32;100959.53;;;26.17;41.31
75938;BME280;64615;32.062;34.834;2023-04-25T05:45:58;100970.19;;;26.14;41.39
75938;BME280;64615;32.062;34.834;2023-04-25T05:48:24;100963.66;;;26.10;41.09
75938;BME280;64615;32.062;34.834;2023-04-25T05:50:50;100951.63;;;26.16;40.87
75938;BME280;64615;32.062;34.834;2023-04-25T05:53:17;100954.41;;;25.70;40.35
75938;BME280;64615;32.062;34.834;2023-04-25T05:55:43;100955.75;;;25.27;41.28
75938;BME280;64615;32.062;34.834;2023-04-25T05:58:08;100958.47;;;25.43;41.22
75938;BME280;64615;32.062;34.834;2023-04-25T06:00:34;100954.69;;;25.84;41.16
75938;BME280;64615;32.062;34.834;2023-04-25T06:03:00;100958.53;;;25.63;41.61
75938;BME280;64615;32.062;34.834;2023-04-25T06:05:26;100958.78;;;25.61;41.42
75938;BME280;64615;32.062;34.834;2023-04-25T06:07:52;100953.13;;;24.75;43.28
75938;BME280;64615;32.062;34.834;2023-04-25T06:10:18;100960.13;;;24.61;43.52
75938;BME280;64615;32.062;34.834;2023-04-25T06:12:43;100959.66;;;24.69;42.49
75938;BME280;64615;32.062;34.834;2023-04-25T06:15:09;100962.72;;;24.88;42.82
75938;BME280;64615;32.062;34.834;2023-04-25T06:17:35;100957.06;;;25.05;42.40
75938;BME280;64615;32.062;34.834;2023-04-25T06:20:02;100951.63;;;25.15;42.04
75938;BME280;64615;32.062;34.834;2023-04-25T06:22:28;100953.81;;;25.23;42.71
75938;BME280;64615;32.062;34.834;2023-04-25T06:24:54;100960.09;;;25.28;42.21
75938;BME280;64615;32.062;34.834;2023-04-25T06:27:22;100964.75;;;25.33;41.79
75938;BME280;64615;32.062;34.834;2023-04-25T06:29:48;100967.72;;;25.21;42.71
75938;BME280;64615;32.062;34.834;2023-04-25T06:32:13;100975.09;;;25.26;42.33
75938;BME280;64615;32.062;34.834;2023-04-25T06:34:39;100969.06;;;25.24;42.17
75938;BME280;64615;32.062;34.834;2023-04-25T06:37:05;100970.44;;;25.21;42.36
75938;BME280;64615;32.062;34.834;2023-04-25T06:39:30;100972.59;;;25.19;42.43
75938;BME280;64615;32.062;34.834;2023-04-25T06:41:56;100969.88;;;25.14;42.66
75938;BME280;64615;32.062;34.834;2023-04-25T06:44:21;100975.06;;;25.16;42.71
75938;BME280;64615;32.062;34.834;2023-04-25T06:46:49;100971.25;;;25.12;42.43
75938;BME280;64615;32.062;34.834;2023-04-25T06:49:15;100971.25;;;25.12;42.54
75938;BME280;64615;32.062;34.834;2023-04-25T06:51:41;100973.97;;;25.12;41.65
75938;BME280;64615;32.062;34.834;2023-04-25T06:54:06;100972.59;;;25.09;42.22
75938;BME280;64615;32.062;34.834;2023-04-25T06:56:32;100971.25;;;25.12;42.03
75938;BME280;64615;32.062;34.834;2023-04-25T06:58:58;100969.03;;;25.09;41.92
75938;BME280;64615;32.062;34.834;2023-04-25T07:01:25;100971.25;;;25.07;42.27
75938;BME280;64615;32.062;34.834;2023-04-25T07:03:51;100971.25;;;25.07;42.08
75938;BME280;64615;32.062;34.834;2023-04-25T07:06:16;100973.13;;;25.06;41.70
75938;BME280;64615;32.062;34.834;2023-04-25T07:08:42;100964.41;;;25.04;41.36
75938;BME280;64615;32.062;34.834;2023-04-25T07:11:08;100964.16;;;25.06;41.31
75938;BME280;64615;32.062;34.834;2023-04-25T07:13:34;100972.84;;;25.03;42.09
75938;BME280;64615;32.062;34.834;2023-04-25T07:15:59;100972.31;;;25.01;42.06
75938;BME280;64615;32.062;34.834;2023-04-25T07:18:25;100970.91;;;24.98;42.24
75938;BME280;64615;32.062;34.834;2023-04-25T07:20:51;100968.47;;;24.97;41.85
75938;BME280;64615;32.062;34.834;2023-04-25T07:23:16;100960.28;;;24.97;41.92
75938;BME280;64615;32.062;34.834;2023-04-25T07:25:42;100949.69;;;24.95;41.60
75938;BME280;64615;32.062;34.834;2023-04-25T07:28:07;100951.03;;;24.93;42.04
75938;BME280;64615;32.062;34.834;2023-04-25T07:30:33;100951.84;;;24.93;41.65
75938;BME280;64615;32.062;34.834;2023-04-25T07:33:00;100954.81;;;24.92;41.86
75938;BME280;64615;32.062;34.834;2023-04-25T07:35:26;100950.50;;;24.91;42.15
75938;BME280;64615;32.062;34.834;2023-04-25T07:37:51;100947.44;;;24.87;42.46
75938;BME280;64615;32.062;34.834;2023-04-25T07:40:17;100947.44;;;24.87;42.51
75938;BME280;64615;32.062;34.834;2023-04-25T07:42:43;100937.09;;;24.84;42.48
75938;BME280;64615;32.062;34.834;2023-04-25T07:45:09;100938.16;;;24.83;42.27
75938;BME280;64615;32.062;34.834;2023-04-25T07:47:35;100946.34;;;24.83;41.89
75938;BME280;64615;32.062;34.834;2023-04-25T07:50:02;100940.06;;;24.82;41.95
75938;BME280;64615;32.062;34.834;2023-04-25T07:52:28;100938.44;;;24.81;42.37
75938;BME280;64615;32.062;34.834;2023-04-25T07:54:53;100941.16;;;24.81;42.25
75938;BME280;64615;32.062;34.834;2023-04-25T07:57:19;100926.44;;;24.77;42.20
75938;BME280;64615;32.062;34.834;2023-04-25T07:59:45;100929.41;;;24.76;42.51
75938;BME280;64615;32.062;34.834;2023-04-25T08:02:11;100930.53;;;24.75;42.53
75938;BME280;64615;32.062;34.834;2023-04-25T08:04:36;100936.50;;;24.72;42.35
75938;BME280;64615;32.062;34.834;2023-04-25T08:07:02;100932.41;;;24.69;43.04
75938;BME280;64615;32.062;34.834;2023-04-25T08:09:28;100927.22;;;24.68;43.00
75938;BME280;64615;32.062;34.834;2023-04-25T08:11:54;100932.94;;;24.66;42.71
75938;BME280;64615;32.062;34.834;2023-04-25T08:14:20;100931.59;;;24.64;42.93
75938;BME280;64615;32.062;34.834;2023-04-25T08:16:45;100922.59;;;24.63;43.24
75938;BME280;64615;32.062;34.834;2023-04-25T08:19:11;100926.13;;;24.64;43.48
75938;BME280;64615;32.062;34.834;2023-04-25T08:21:37;100926.41;;;24.62;43.24
75938;BME280;64615;32.062;34.834;2023-04-25T08:24:03;100915.50;;;24.62;43.78
75938;BME280;64615;32.062;34.834;2023-04-25T08:26:29;100908.72;;;24.60;43.04
75938;BME280;64615;32.062;34.834;2023-04-25T08:28:55;100921.75;;;24.58;43.45
75938;BME280;64615;32.062;34.834;2023-04-25T08:31:20;100919.59;;;24.55;42.99
75938;BME280;64615;32.062;34.834;2023-04-25T08:33:46;100918.75;;;24.54;43.38
75938;BME280;64615;32.062;34.834;2023-04-25T08:36:12;100905.66;;;24.51;43.28
75938;BME280;64615;32.062;34.834;2023-04-25T08:38:37;100903.50;;;24.48;43.22
75938;BME280;64615;32.062;34.834;2023-04-25T08:41:05;100908.94;;;24.48;43.85
75938;BME280;64615;32.062;34.834;2023-04-25T08:43:31;100909.66;;;24.28;43.89
75938;BME280;64615;32.062;34.834;2023-04-25T08:46:01;100906.81;;;24.13;44.35
75938;BME280;64615;32.062;34.834;2023-04-25T08:48:28;100907.63;;;24.14;44.34
75938;BME280;64615;32.062;34.834;2023-04-25T08:50:56;100900.63;;;24.18;44.18
75938;BME280;64615;32.062;34.834;2023-04-25T08:53:28;100906.63;;;24.25;43.99
75938;BME280;64615;32.062;34.834;2023-04-25T08:55:55;100904.72;;;24.20;43.87
75938;BME280;64615;32.062;34.834;2023-04-25T08:58:21;100901.94;;;24.15;44.54
75938;BME280;64615;32.062;34.834;2023-04-25T09:00:48;100897.56;;;24.09;44.73
75938;BME280;64615;32.062;34.834;2023-04-25T09:03:15;100895.66;;;24.10;44.64
75938;BME280;64615;32.062;34.834;2023-04-25T09:05:41;100893.50;;;24.12;44.45
75938;BME280;64615;32.062;34.834;2023-04-25T09:08:07;100896.44;;;24.05;44.65
75938;BME280;64615;32.062;34.834;2023-04-25T09:10:34;100896.69;;;24.03;44.90
75938;BME280;64615;32.062;34.834;2023-04-25T09:15:54;100883.09;;;24.03;45.08
75938;BME280;64615;32.062;34.834;2023-04-25T09:18:27;100878.22;;;24.00;45.06
75938;BME280;64615;32.062;34.834;2023-04-25T09:20:55;100878.75;;;24.07;45.35
75938;BME280;64615;32.062;34.834;2023-04-25T09:23:22;100879.34;;;24.10;45.66
75938;BME280;64615;32.062;34.834;2023-04-25T09:25:49;100877.44;;;24.10;45.52
75938;BME280;64615;32.062;34.834;2023-04-25T09:28:15;100879.31;;;24.04;45.94
75938;BME280;64615;32.062;34.834;2023-04-25T09:30:42;100868.44;;;24.10;46.25
75938;BME280;64615;32.062;34.834;2023-04-25T09:33:09;100870.13;;;24.16;45.83
75938;BME280;64615;32.062;34.834;2023-04-25T09:35:38;100862.78;;;24.16;46.07
75938;BME280;64615;32.062;34.834;2023-04-25T09:38:09;100861.44;;;24.19;45.83
75938;BME280;64615;32.062;34.834;2023-04-25T09:40:39;100861.19;;;24.20;45.69
75938;BME280;64615;32.062;34.834;2023-04-25T09:43:10;100862.72;;;24.06;46.27
75938;BME280;64615;32.062;34.834;2023-04-25T09:45:42;100856.22;;;24.07;46.32
75938;BME280;64615;32.062;34.834;2023-04-25T09:48:19;100853.22;;;24.08;46.11
75938;BME280;64615;32.062;34.834;2023-04-25T09:53:34;100866.00;;;24.13;46.18
75938;BME280;64615;32.062;34.834;2023-04-25T09:56:02;100855.13;;;24.13;46.49
75938;BME280;64615;32.062;34.834;2023-04-25T09:58:29;100863.03;;;24.15;46.27
75938;BME280;64615;32.062;34.834;2023-04-25T10:01:09;100859.25;;;24.16;46.08
75938;BME280;64615;32.062;34.834;2023-04-25T10:03:39;100861.72;;;24.17;46.23
75938;BME280;64615;32.062;34.834;2023-04-25T10:06:19;100856.28;;;24.17;46.66
75938;BME280;64615;32.062;34.834;2023-04-25T10:08:45;100850.84;;;24.17;46.75
75938;BME280;64615;32.062;34.834;2023-04-25T10:11:16;100852.72;;;24.17;46.21
75938;BME280;64615;32.062;34.834;2023-04-25T10:13:42;100858.16;;;24.17;46.68
75938;BME280;64615;32.062;34.834;2023-04-25T10:16:08;100857.34;;;24.16;46.62
75938;BME280;64615;32.062;34.834;2023-04-25T10:18:34;100857.13;;;24.18;46.77
75938;BME280;64615;32.062;34.834;2023-04-25T10:21:01;100851.06;;;24.16;46.91
75938;BME280;64615;32.062;34.834;2023-04-25T10:23:29;100860.88;;;24.17;47.04
75938;BME280;64615;32.062;34.834;2023-04-25T10:25:56;100854.63;;;24.16;47.19
75938;BME280;64615;32.062;34.834;2023-04-25T10:28:23;100851.69;;;24.18;46.93
75938;BME280;64615;32.062;34.834;2023-04-25T10:31:06;100855.19;;;24.18;47.12
75938;BME280;64615;32.062;34.834;2023-04-25T10:33:34;100858.72;;;24.19;47.25
75938;BME280;64615;32.062;34.834;2023-04-25T10:36:18;100844.56;;;24.17;47.31
75938;BME280;64615;32.062;34.834;2023-04-25T10:38:45;100847.84;;;24.19;47.36
75938;BME280;64615;32.062;34.834;2023-04-25T10:41:12;100849.50;;;24.20;47.44
75938;BME280;64615;32.062;34.834;2023-04-25T10:43:45;100845.13;;;24.19;47.25
75938;BME280;64615;32.062;34.834;2023-04-25T10:46:22;100847.03;;;24.18;47.36
75938;BME280;64615;32.062;34.834;2023-04-25T10:48:50;100842.41;;;24.19;47.21
75938;BME280;64615;32.062;34.834;2023-04-25T10:51:39;100834.25;;;24.19;47.35
75938;BME280;64615;32.062;34.834;2023-04-25T10:54:07;100839.44;;;24.20;47.16
75938;BME280;64615;32.062;34.834;2023-04-25T10:56:38;100848.97;;;24.18;47.56
75938;BME280;64615;32.062;34.834;2023-04-25T10:59:12;100839.13;;;24.17;47.51
75938;BME280;64615;32.062;34.834;2023-04-25T11:01:51;100836.16;;;24.18;47.67
75938;BME280;64615;32.062;34.834;2023-04-25T11:04:36;100838.59;;;24.20;48.02
75938;BME280;64615;32.062;34.834;2023-04-25T11:09:32;100847.59;;;24.20;47.93
75938;BME280;64615;32.062;34.834;2023-04-25T11:11:59;100845.13;;;24.19;47.64
75938;BME280;64615;32.062;34.834;2023-04-25T11:14:26;100844.03;;;24.20;47.97
75938;BME280;64615;32.062;34.834;2023-04-25T11:16:55;100839.69;;;24.19;47.83
75938;BME280;64615;32.062;34.834;2023-04-25T11:19:22;100849.50;;;24.20;47.62
75938;BME280;64615;32.062;34.834;2023-04-25T11:21:48;100843.78;;;24.21;47.51
75938;BME280;64615;32.062;34.834;2023-04-25T11:24:16;100839.44;;;24.20;47.67
75938;BME280;64615;32.062;34.834;2023-04-25T11:26:42;100834.81;;;24.21;47.56
75938;BME280;64615;32.062;34.834;2023-04-25T11:29:08;100840.25;;;24.21;47.37
75938;BME280;64615;32.062;34.834;2023-04-25T11:31:34;100842.16;;;24.20;47.64
75938;BME280;64615;32.062;34.834;2023-04-25T11:33:59;100848.41;;;24.21;47.72
75938;BME280;64615;32.062;34.834;2023-04-25T11:36:27;100841.63;;;24.23;47.78
75938;BME280;64615;32.062;34.834;2023-04-25T11:38:53;100835.38;;;24.23;47.47
75938;BME280;64615;32.062;34.834;2023-04-25T11:41:19;100833.47;;;24.23;47.77
75938;BME280;64615;32.062;34.834;2023-04-25T11:43:45;100832.66;;;24.23;47.68
75938;BME280;64615;32.062;34.834;2023-04-25T11:46:11;100826.38;;;24.22;47.86
75938;BME280;64615;32.062;34.834;2023-04-25T11:48:38;100825.84;;;24.25;47.37
75938;BME280;64615;32.062;34.834;2023-04-25T11:51:05;100829.66;;;24.24;47.46
75938;BME280;64615;32.062;34.834;2023-04-25T11:53:31;100826.91;;;24.19;47.79
75938;BME280;64615;32.062;34.834;2023-04-25T11:55:57;100823.09;;;24.20;47.97
75938;BME280;64615;32.062;34.834;2023-04-25T11:58:22;100827.47;;;24.21;48.36
75938;BME280;64615;32.062;34.834;2023-04-25T12:00:48;100823.66;;;24.22;48.08
75938;BME280;64615;32.062;34.834;2023-04-25T12:03:14;100829.38;;;24.26;47.98
75938;BME280;64615;32.062;34.834;2023-04-25T12:05:39;100817.94;;;24.24;48.47
75938;BME280;64615;32.062;34.834;2023-04-25T12:11:54;100819.81;;;24.18;48.22
75938;BME280;64615;32.062;34.834;2023-04-25T12:14:31;100819.03;;;24.18;48.31
75938;BME280;64615;32.062;34.834;2023-04-25T12:16:59;100816.53;;;24.16;48.41
75938;BME280;64615;32.062;34.834;2023-04-25T12:19:25;100808.16;;;24.18;48.15
75938;BME280;64615;32.062;34.834;2023-04-25T12:21:52;100815.19;;;24.19;48.63
75938;BME280;64615;32.062;34.834;2023-04-25T12:24:21;100815.19;;;24.19;48.58
75938;BME280;64615;32.062;34.834;2023-04-25T12:27:03;100810.31;;;24.21;48.60
75938;BME280;64615;32.062;34.834;2023-04-25T12:29:32;100811.16;;;24.21;48.72
75938;BME280;64615;32.062;34.834;2023-04-25T12:31:58;100811.16;;;24.21;48.75
75938;BME280;64615;32.062;34.834;2023-04-25T12:34:25;100801.03;;;24.17;48.71
75938;BME280;64615;32.062;34.834;2023-04-25T12:36:52;100804.88;;;24.21;48.10
75938;BME280;64615;32.062;34.834;2023-04-25T12:39:19;100811.72;;;24.23;49.15
75938;BME280;64615;32.062;34.834;2023-04-25T12:41:50;100799.47;;;24.26;48.64
75938;BME280;64615;32.062;34.834;2023-04-25T12:44:16;100809.53;;;24.30;48.53
75938;BME280;64615;32.062;34.834;2023-04-25T12:46:42;100809.53;;;24.30;48.82
75938;BME280;64615;32.062;34.834;2023-04-25T12:49:08;100807.38;;;24.32;48.47
75938;BME280;64615;32.062;34.834;2023-04-25T12:51:35;100798.94;;;24.34;48.57
75938;BME280;64615;32.062;34.834;2023-04-25T12:54:03;100797.06;;;24.44;48.38